Time,TemperatureF,DewpointF,PressureIn,WindDirection,WindDirectionDegrees,WindSpeedMPH,WindSpeedGustMPH,Humidity,HourlyPrecipIn,Conditions,Clouds,dailyrainin,SoftwareType,DateUTC
2013-05-03 00:01:00,42.2,40.0,30.38,WSW,239,9.0,-999.0,92,-99.99,,,0.00,weatherlink.com 1.10,2013-05-03 07:01:00,
2013-05-03 00:16:00,41.9,40.0,30.39,WSW,246,7.0,-999.0,92,-99.99,,,0.00,weatherlink.com 1.10,2013-05-03 07:16:00,
2013-05-03 00:32:00,41.4,39.0,30.38,WSW,242,5.0,-999.0,92,-99.99,,,0.00,weatherlink.com 1.10,2013-05-03 07:32:00,
2013-05-03 00:47:00,41.5,40.0,30.38,WSW,244,3.0,-999.0,93,-99.99,,,0.00,weatherlink.com 1.10,2013-05-03 07:47:00,
2013-05-03 01:02:00,41.1,39.0,30.38,WSW,238,0.0,-999.0,93,-99.99,,,0.00,weatherlink.com 1.10,2013-05-03 08:02:00,
2013-05-03 11:55:00,52.5,47.0,30.34,NE,49,3.0,-999.0,80,-99.99,,,0.00,weatherlink.com 1.10,2013-05-03 18:55:00,
2013-05-03 12:02:00,52.6,47.0,30.34,NNE,28,4.0,-999.0,81,-99.99,,,0.00,weatherlink.com 1.10,2013-05-03 19:02:00,
2013-05-03 12:17:00,53.1,47.0,30.34,NE,46,5.0,-999.0,81,-99.99,,,0.00,weatherlink.com 1.10,2013-05-03 19:17:00,
2013-05-03 12:31:00,53.5,48.0,30.33,NNE,31,0.0,-999.0,81,-99.99,,,0.00,weatherlink.com 1.10,2013-05-03 19:31:00,
2013-05-03 12:47:00,54.9,49.0,30.33,ESE,105,0.0,-999.0,80,-99.99,,,0.00,weatherlink.com 1.10,2013-05-03 19:47:00,
2013-05-03 13:02:00,56.3,49.0,30.32,ESE,103,0.0,-999.0,77,-99.99,,,0.00,weatherlink.com 1.10,2013-05-03 20:02:00,
2013-05-03 13:17:00,56.9,49.0,30.32,East,88,0.0,-999.0,74,-99.99,,,0.00,weatherlink.com 1.10,2013-05-03 20:17:00,
2013-05-03 13:31:00,55.0,48.0,30.32,ENE,76,3.0,-999.0,77,-99.99,,,0.00,weatherlink.com 1.10,2013-05-03 20:31:00,
2013-05-03 13:47:00,54.2,48.0,30.33,ENE,59,3.0,-999.0,80,-99.99,,,0.00,weatherlink.com 1.10,2013-05-03 20:47:00,
2013-05-03 14:02:00,54.2,49.0,30.32,NE,49,4.0,-999.0,81,-99.99,,,0.00,weatherlink.com 1.10,2013-05-03 21:02:00,
2013-05-03 14:17:00,55.4,49.0,30.32,East,99,0.0,-999.0,80,-99.99,,,0.00,weatherlink.com 1.10,2013-05-03 21:17:00,
2013-05-03 14:46:00,57.7,50.0,30.32,ESE,107,0.0,-999.0,75,-99.99,,,0.00,weatherlink.com 1.10,2013-05-03 21:46:00,
2013-05-03 15:02:00,58.0,50.0,30.32,East,89,0.0,-999.0,74,-99.99,,,0.00,weatherlink.com 1.10,2013-05-03 22:02:00,
2013-05-03 15:17:00,57.8,50.0,30.31,East,80,0.0,-999.0,74,-99.99,,,0.00,weatherlink.com 1.10,2013-05-03 22:17:00,
2013-05-03 15:32:00,57.9,50.0,30.30,ESE,102,0.0,-999.0,75,-99.99,,,0.00,weatherlink.com 1.10,2013-05-03 22:32:00,
2013-05-03 15:47:00,57.1,49.0,30.30,SE,144,5.0,-999.0,74,-99.99,,,0.00,weatherlink.com 1.10,2013-05-03 22:47:00,
2013-05-03 16:02:00,56.3,48.0,30.29,SSE,162,3.0,-999.0,75,-99.99,,,0.00,weatherlink.com 1.10,2013-05-03 23:02:00,
2013-05-03 16:17:00,56.6,50.0,30.28,SE,139,0.0,-999.0,78,-99.99,,,0.00,weatherlink.com 1.10,2013-05-03 23:17:00,
2013-05-03 16:32:00,59.0,50.0,30.28,SE,126,0.0,-999.0,71,-99.99,,,0.00,weatherlink.com 1.10,2013-05-03 23:32:00,
2013-05-03 16:47:00,59.1,49.0,30.28,SE,126,2.0,-999.0,70,-99.99,,,0.00,weatherlink.com 1.10,2013-05-03 23:47:00,
2013-05-03 17:02:00,59.0,50.0,30.28,SE,126,0.0,-999.0,71,-99.99,,,0.00,weatherlink.com 1.10,2013-05-04 00:02:00,
2013-05-03 17:17:00,59.0,50.0,30.27,NE,40,6.0,-999.0,73,-99.99,,,0.00,weatherlink.com 1.10,2013-05-04 00:17:00,
2013-05-03 17:32:00,58.9,50.0,30.27,SSE,157,5.0,-999.0,73,-99.99,,,0.00,weatherlink.com 1.10,2013-05-04 00:32:00,
2013-05-03 17:47:00,57.5,50.0,30.27,SE,125,2.0,-999.0,76,-99.99,,,0.00,weatherlink.com 1.10,2013-05-04 00:47:00,
2013-05-03 18:02:00,58.0,50.0,30.27,SE,143,5.0,-999.0,74,-99.99,,,0.00,weatherlink.com 1.10,2013-05-04 01:02:00,
2013-05-03 18:17:00,60.2,50.0,30.26,West,260,0.0,-999.0,68,-99.99,,,0.00,weatherlink.com 1.10,2013-05-04 01:17:00,
2013-05-03 18:32:00,60.5,49.0,30.26,SW,224,0.0,-999.0,66,-99.99,,,0.00,weatherlink.com 1.10,2013-05-04 01:32:00,
2013-05-03 18:47:00,60.7,47.0,30.26,West,265,2.0,-999.0,62,-99.99,,,0.00,weatherlink.com 1.10,2013-05-04 01:47:00,
2013-05-03 19:02:00,59.9,47.0,30.26,West,281,4.0,-999.0,62,-99.99,,,0.00,weatherlink.com 1.10,2013-05-04 02:02:00,
2013-05-03 19:17:00,59.0,46.0,30.25,WSW,249,0.0,-999.0,63,-99.99,,,0.00,weatherlink.com 1.10,2013-05-04 02:17:00,
2013-05-03 19:32:00,59.0,48.0,30.25,SW,226,0.0,-999.0,67,-99.99,,,0.00,weatherlink.com 1.10,2013-05-04 02:32:00,
2013-05-03 19:47:00,58.4,48.0,30.24,SW,227,0.0,-999.0,69,-99.99,,,0.00,weatherlink.com 1.10,2013-05-04 02:47:00,
2013-05-03 20:02:00,56.9,48.0,30.23,SW,227,0.0,-999.0,71,-99.99,,,0.00,weatherlink.com 1.10,2013-05-04 03:02:00,
2013-05-03 20:17:00,55.9,47.0,30.23,SW,227,2.0,-999.0,72,-99.99,,,0.00,weatherlink.com 1.10,2013-05-04 03:17:00,
2013-05-03 20:32:00,54.8,47.0,30.23,SW,227,0.0,-999.0,75,-99.99,,,0.00,weatherlink.com 1.10,2013-05-04 03:32:00,
2013-05-03 20:47:00,54.1,47.0,30.23,SW,227,0.0,-999.0,78,-99.99,,,0.00,weatherlink.com 1.10,2013-05-04 03:47:00,
2013-05-03 21:02:00,53.4,47.0,30.24,West,260,3.0,-999.0,80,-99.99,,,0.00,weatherlink.com 1.10,2013-05-04 04:02:00,
2013-05-03 21:17:00,52.0,47.0,30.24,WSW,248,3.0,-999.0,82,-99.99,,,0.00,weatherlink.com 1.10,2013-05-04 04:17:00,
2013-05-03 21:32:00,51.2,46.0,30.25,WSW,254,5.0,-999.0,83,-99.99,,,0.00,weatherlink.com 1.10,2013-05-04 04:32:00,
2013-05-03 21:47:00,50.1,46.0,30.24,WSW,245,7.0,-999.0,85,-99.99,,,0.00,weatherlink.com 1.10,2013-05-04 04:47:00,
2013-05-03 22:02:00,49.4,45.0,30.23,WSW,242,4.0,-999.0,86,-99.99,,,0.00,weatherlink.com 1.10,2013-05-04 05:02:00,
2013-05-03 22:17:00,48.7,46.0,30.23,WSW,245,4.0,-999.0,89,-99.99,,,0.00,weatherlink.com 1.10,2013-05-04 05:17:00,
2013-05-03 22:32:00,48.7,45.0,30.22,WSW,247,7.0,-999.0,88,-99.99,,,0.00,weatherlink.com 1.10,2013-05-04 05:32:00,
2013-05-03 22:47:00,48.3,45.0,30.23,WSW,257,6.0,-999.0,89,-99.99,,,0.00,weatherlink.com 1.10,2013-05-04 05:47:00,
2013-05-03 23:02:00,48.4,45.0,30.22,WSW,244,4.0,-999.0,89,-99.99,,,0.00,weatherlink.com 1.10,2013-05-04 06:02:00,
2013-05-03 23:17:00,47.8,45.0,30.22,West,259,4.0,-999.0,89,-99.99,,,0.00,weatherlink.com 1.10,2013-05-04 06:17:00,
2013-05-03 23:32:00,47.2,45.0,30.22,WSW,253,5.0,-999.0,90,-99.99,,,0.00,weatherlink.com 1.10,2013-05-04 06:32:00,
2013-05-03 23:47:00,46.8,44.0,30.21,WSW,244,4.0,-999.0,91,-99.99,,,0.00,weatherlink.com 1.10,2013-05-04 06:47:00,